sensor_id;sensor_type;location;lat;lon;timestamp;P1;durP1;ratioP1;P2;durP2;ratioP2
17449;SDS011;8842;51.244;7.102;2023-01-08T00:03:08;10.30;;;9.70;;
17449;SDS011;8842;51.244;7.102;2023-01-08T00:08:19;10.00;;;9.50;;
17449;SDS011;8842;51.244;7.102;2023-01-08T00:13:24;9.70;;;9.20;;
17449;SDS011;8842;51.244;7.102;2023-01-08T00:18:28;10.10;;;9.50;;
17449;SDS011;8842;51.244;7.102;2023-01-08T00:23:32;9.70;;;9.20;;
17449;SDS011;8842;51.244;7.102;2023-01-08T00:28:44;9.50;;;9.00;;
17449;SDS011;8842;51.244;7.102;2023-01-08T00:33:48;8.70;;;8.30;;
17449;SDS011;8842;51.244;7.102;2023-01-08T00:39:00;8.80;;;8.40;;
17449;SDS011;8842;51.244;7.102;2023-01-08T00:49:16;9.70;;;9.20;;
17449;SDS011;8842;51.244;7.102;2023-01-08T00:59:31;9.43;;;8.93;;
17449;SDS011;8842;51.244;7.102;2023-01-08T01:04:35;9.60;;;9.10;;
17449;SDS011;8842;51.244;7.102;2023-01-08T01:09:47;9.70;;;9.10;;
17449;SDS011;8842;51.244;7.102;2023-01-08T01:14:59;9.67;;;9.17;;
17449;SDS011;8842;51.244;7.102;2023-01-08T01:20:04;9.40;;;8.90;;
17449;SDS011;8842;51.244;7.102;2023-01-08T01:25:16;9.37;;;8.87;;
17449;SDS011;8842;51.244;7.102;2023-01-08T01:30:21;9.73;;;8.87;;
17449;SDS011;8842;51.244;7.102;2023-01-08T01:35:34;9.40;;;8.90;;
17449;SDS011;8842;51.244;7.102;2023-01-08T01:40:40;9.60;;;9.10;;
17449;SDS011;8842;51.244;7.102;2023-01-08T01:45:52;9.70;;;9.20;;
17449;SDS011;8842;51.244;7.102;2023-01-08T01:50:56;9.40;;;8.90;;
17449;SDS011;8842;51.244;7.102;2023-01-08T01:56:08;9.40;;;8.90;;
17449;SDS011;8842;51.244;7.102;2023-01-08T02:01:12;9.30;;;8.80;;
17449;SDS011;8842;51.244;7.102;2023-01-08T02:06:20;9.50;;;9.00;;
17449;SDS011;8842;51.244;7.102;2023-01-08T02:11:36;9.30;;;8.80;;
17449;SDS011;8842;51.244;7.102;2023-01-08T02:16:47;9.57;;;8.90;;
17449;SDS011;8842;51.244;7.102;2023-01-08T02:22:02;9.97;;;9.47;;
17449;SDS011;8842;51.244;7.102;2023-01-08T02:27:10;10.93;;;10.33;;
17449;SDS011;8842;51.244;7.102;2023-01-08T02:32:25;12.60;;;11.90;;
17449;SDS011;8842;51.244;7.102;2023-01-08T02:37:30;12.07;;;11.47;;
17449;SDS011;8842;51.244;7.102;2023-01-08T02:42:37;12.57;;;11.87;;
17449;SDS011;8842;51.244;7.102;2023-01-08T02:47:52;12.10;;;11.50;;
17449;SDS011;8842;51.244;7.102;2023-01-08T02:53:05;11.80;;;11.20;;
17449;SDS011;8842;51.244;7.102;2023-01-08T02:58:12;12.70;;;12.00;;
17449;SDS011;8842;51.244;7.102;2023-01-08T03:03:18;11.90;;;11.20;;
17449;SDS011;8842;51.244;7.102;2023-01-08T03:08:35;11.30;;;10.70;;
17449;SDS011;8842;51.244;7.102;2023-01-08T03:13:42;11.60;;;11.00;;
17449;SDS011;8842;51.244;7.102;2023-01-08T03:18:56;11.87;;;11.27;;
17449;SDS011;8842;51.244;7.102;2023-01-08T03:24:08;11.33;;;10.73;;
17449;SDS011;8842;51.244;7.102;2023-01-08T03:29:16;11.60;;;11.00;;
17449;SDS011;8842;51.244;7.102;2023-01-08T03:34:22;12.20;;;11.47;;
17449;SDS011;8842;51.244;7.102;2023-01-08T03:39:37;12.00;;;11.30;;
17449;SDS011;8842;51.244;7.102;2023-01-08T03:49:59;12.03;;;11.33;;
17449;SDS011;8842;51.244;7.102;2023-01-08T03:55:05;11.60;;;11.00;;
17449;SDS011;8842;51.244;7.102;2023-01-08T04:00:11;12.37;;;11.57;;
17449;SDS011;8842;51.244;7.102;2023-01-08T04:05:25;12.57;;;11.87;;
17449;SDS011;8842;51.244;7.102;2023-01-08T04:10:29;12.00;;;11.40;;
17449;SDS011;8842;51.244;7.102;2023-01-08T04:15:48;12.63;;;11.93;;
17449;SDS011;8842;51.244;7.102;2023-01-08T04:20:53;12.67;;;11.97;;
17449;SDS011;8842;51.244;7.102;2023-01-08T04:31:08;12.30;;;11.70;;
17449;SDS011;8842;51.244;7.102;2023-01-08T04:36:12;12.40;;;11.80;;
17449;SDS011;8842;51.244;7.102;2023-01-08T04:41:27;12.80;;;12.10;;
17449;SDS011;8842;51.244;7.102;2023-01-08T04:51:42;12.70;;;12.00;;
17449;SDS011;8842;51.244;7.102;2023-01-08T05:01:59;12.67;;;12.00;;
17449;SDS011;8842;51.244;7.102;2023-01-08T05:12:17;12.87;;;12.17;;
17449;SDS011;8842;51.244;7.102;2023-01-08T05:22:35;12.90;;;12.20;;
17449;SDS011;8842;51.244;7.102;2023-01-08T05:27:39;12.33;;;11.73;;
17449;SDS011;8842;51.244;7.102;2023-01-08T05:37:54;13.30;;;12.60;;
17449;SDS011;8842;51.244;7.102;2023-01-08T05:43:02;12.53;;;11.93;;
17449;SDS011;8842;51.244;7.102;2023-01-08T05:48:14;12.97;;;12.27;;
17449;SDS011;8842;51.244;7.102;2023-01-08T05:53:18;12.80;;;12.10;;
17449;SDS011;8842;51.244;7.102;2023-01-08T05:58:33;12.87;;;12.17;;
17449;SDS011;8842;51.244;7.102;2023-01-08T06:03:37;12.80;;;12.10;;
17449;SDS011;8842;51.244;7.102;2023-01-08T06:13:53;13.30;;;12.60;;
17449;SDS011;8842;51.244;7.102;2023-01-08T06:18:57;12.90;;;12.20;;
17449;SDS011;8842;51.244;7.102;2023-01-08T06:29:14;12.40;;;11.80;;
17449;SDS011;8842;51.244;7.102;2023-01-08T06:34:18;13.00;;;12.30;;
17449;SDS011;8842;51.244;7.102;2023-01-08T06:39:30;12.90;;;12.20;;
17449;SDS011;8842;51.244;7.102;2023-01-08T06:44:34;12.90;;;12.20;;
17449;SDS011;8842;51.244;7.102;2023-01-08T06:49:46;12.90;;;12.20;;
17449;SDS011;8842;51.244;7.102;2023-01-08T07:00:01;11.90;;;11.30;;
17449;SDS011;8842;51.244;7.102;2023-01-08T07:10:17;11.90;;;11.30;;
17449;SDS011;8842;51.244;7.102;2023-01-08T07:15:29;11.47;;;10.87;;
17449;SDS011;8842;51.244;7.102;2023-01-08T07:20:33;12.80;;;12.10;;
17449;SDS011;8842;51.244;7.102;2023-01-08T07:25:47;12.37;;;11.77;;
17449;SDS011;8842;51.244;7.102;2023-01-08T07:30:51;13.00;;;12.30;;
17449;SDS011;8842;51.244;7.102;2023-01-08T07:36:03;12.70;;;12.00;;
17449;SDS011;8842;51.244;7.102;2023-01-08T07:41:08;12.10;;;11.50;;
17449;SDS011;8842;51.244;7.102;2023-01-08T07:46:20;12.40;;;11.80;;
17449;SDS011;8842;51.244;7.102;2023-01-08T07:51:24;12.30;;;11.70;;
17449;SDS011;8842;51.244;7.102;2023-01-08T07:56:29;12.00;;;11.40;;
17449;SDS011;8842;51.244;7.102;2023-01-08T08:01:43;12.47;;;11.87;;
17449;SDS011;8842;51.244;7.102;2023-01-08T08:06:58;12.30;;;11.70;;
17449;SDS011;8842;51.244;7.102;2023-01-08T08:12:02;11.50;;;10.90;;
17449;SDS011;8842;51.244;7.102;2023-01-08T08:17:06;11.80;;;11.20;;
17449;SDS011;8842;51.244;7.102;2023-01-08T08:22:18;11.43;;;10.83;;
17449;SDS011;8842;51.244;7.102;2023-01-08T08:27:23;13.20;;;12.50;;
17449;SDS011;8842;51.244;7.102;2023-01-08T08:32:27;11.33;;;10.73;;
17449;SDS011;8842;51.244;7.102;2023-01-08T08:37:41;11.60;;;11.00;;
17449;SDS011;8842;51.244;7.102;2023-01-08T08:42:45;11.20;;;10.60;;
17449;SDS011;8842;51.244;7.102;2023-01-08T08:47:57;11.47;;;10.87;;
17449;SDS011;8842;51.244;7.102;2023-01-08T08:53:01;11.40;;;10.80;;
17449;SDS011;8842;51.244;7.102;2023-01-08T08:58:14;12.00;;;11.40;;
17449;SDS011;8842;51.244;7.102;2023-01-08T09:03:18;11.73;;;11.13;;
17449;SDS011;8842;51.244;7.102;2023-01-08T09:08:30;11.60;;;11.00;;
17449;SDS011;8842;51.244;7.102;2023-01-08T09:13:35;12.50;;;11.90;;
17449;SDS011;8842;51.244;7.102;2023-01-08T09:18:40;11.97;;;11.37;;
17449;SDS011;8842;51.244;7.102;2023-01-08T09:23:53;12.30;;;11.70;;
17449;SDS011;8842;51.244;7.102;2023-01-08T09:34:08;11.73;;;11.13;;
17449;SDS011;8842;51.244;7.102;2023-01-08T09:39:13;12.23;;;11.63;;
17449;SDS011;8842;51.244;7.102;2023-01-08T09:44:28;12.60;;;12.00;;
17449;SDS011;8842;51.244;7.102;2023-01-08T09:49:38;11.83;;;11.23;;
17449;SDS011;8842;51.244;7.102;2023-01-08T09:54:49;12.30;;;11.70;;
17449;SDS011;8842;51.244;7.102;2023-01-08T09:59:53;12.20;;;11.60;;
17449;SDS011;8842;51.244;7.102;2023-01-08T10:04:58;11.47;;;10.87;;
17449;SDS011;8842;51.244;7.102;2023-01-08T10:10:16;12.10;;;11.40;;
17449;SDS011;8842;51.244;7.102;2023-01-08T10:15:22;11.77;;;11.17;;
17449;SDS011;8842;51.244;7.102;2023-01-08T10:20:36;11.47;;;10.87;;
17449;SDS011;8842;51.244;7.102;2023-01-08T10:25:48;10.33;;;9.83;;
17449;SDS011;8842;51.244;7.102;2023-01-08T10:30:57;10.90;;;10.30;;
17449;SDS011;8842;51.244;7.102;2023-01-08T10:36:09;10.40;;;9.90;;
17449;SDS011;8842;51.244;7.102;2023-01-08T10:41:16;9.90;;;9.40;;
17449;SDS011;8842;51.244;7.102;2023-01-08T10:46:22;10.30;;;9.80;;
17449;SDS011;8842;51.244;7.102;2023-01-08T10:51:28;9.80;;;9.30;;
17449;SDS011;8842;51.244;7.102;2023-01-08T10:56:43;9.60;;;9.10;;
17449;SDS011;8842;51.244;7.102;2023-01-08T11:01:48;9.50;;;9.00;;
17449;SDS011;8842;51.244;7.102;2023-01-08T11:07:00;9.33;;;8.83;;
17449;SDS011;8842;51.244;7.102;2023-01-08T11:12:16;9.30;;;8.80;;
17449;SDS011;8842;51.244;7.102;2023-01-08T11:17:47;10.00;;;9.50;;
17449;SDS011;8842;51.244;7.102;2023-01-08T11:22:52;9.90;;;9.40;;
17449;SDS011;8842;51.244;7.102;2023-01-08T11:33:20;8.30;;;7.90;;
17449;SDS011;8842;51.244;7.102;2023-01-08T11:43:43;7.30;;;7.00;;
17449;SDS011;8842;51.244;7.102;2023-01-08T11:48:52;7.50;;;7.10;;
17449;SDS011;8842;51.244;7.102;2023-01-08T11:54:04;7.07;;;6.67;;
17449;SDS011;8842;51.244;7.102;2023-01-08T11:59:12;8.17;;;7.77;;
17449;SDS011;8842;51.244;7.102;2023-01-08T12:04:37;8.30;;;7.90;;
17449;SDS011;8842;51.244;7.102;2023-01-08T12:10:00;5.80;;;5.50;;
17449;SDS011;8842;51.244;7.102;2023-01-08T12:15:10;7.50;;;6.90;;
17449;SDS011;8842;51.244;7.102;2023-01-08T12:20:19;8.47;;;7.50;;
17449;SDS011;8842;51.244;7.102;2023-01-08T12:25:42;6.80;;;6.50;;
17449;SDS011;8842;51.244;7.102;2023-01-08T12:30:59;7.03;;;6.73;;
17449;SDS011;8842;51.244;7.102;2023-01-08T12:36:23;6.63;;;6.33;;
17449;SDS011;8842;51.244;7.102;2023-01-08T12:41:32;7.33;;;6.87;;
17449;SDS011;8842;51.244;7.102;2023-01-08T12:46:38;6.03;;;5.73;;
17449;SDS011;8842;51.244;7.102;2023-01-08T12:51:53;5.80;;;5.60;;
17449;SDS011;8842;51.244;7.102;2023-01-08T12:57:08;6.20;;;5.90;;
17449;SDS011;8842;51.244;7.102;2023-01-08T13:02:17;7.10;;;6.80;;
17449;SDS011;8842;51.244;7.102;2023-01-08T13:07:37;6.80;;;6.50;;
17449;SDS011;8842;51.244;7.102;2023-01-08T13:12:40;6.60;;;6.30;;
17449;SDS011;8842;51.244;7.102;2023-01-08T13:17:46;6.27;;;5.97;;
17449;SDS011;8842;51.244;7.102;2023-01-08T13:28:17;9.57;;;9.07;;
17449;SDS011;8842;51.244;7.102;2023-01-08T13:39:02;10.13;;;9.63;;
17449;SDS011;8842;51.244;7.102;2023-01-08T13:44:15;9.67;;;9.17;;
17449;SDS011;8842;51.244;7.102;2023-01-08T13:49:33;10.53;;;10.03;;
17449;SDS011;8842;51.244;7.102;2023-01-08T13:54:37;10.00;;;9.50;;
17449;SDS011;8842;51.244;7.102;2023-01-08T13:59:50;9.70;;;9.20;;
17449;SDS011;8842;51.244;7.102;2023-01-08T14:04:57;9.10;;;8.70;;
17449;SDS011;8842;51.244;7.102;2023-01-08T14:10:07;8.80;;;8.40;;
17449;SDS011;8842;51.244;7.102;2023-01-08T14:15:20;8.10;;;7.70;;
17449;SDS011;8842;51.244;7.102;2023-01-08T14:20:29;8.70;;;8.30;;
17449;SDS011;8842;51.244;7.102;2023-01-08T14:25:35;8.63;;;8.23;;
17449;SDS011;8842;51.244;7.102;2023-01-08T14:30:45;6.80;;;6.50;;
17449;SDS011;8842;51.244;7.102;2023-01-08T14:35:57;8.30;;;7.90;;
17449;SDS011;8842;51.244;7.102;2023-01-08T14:46:18;7.70;;;7.30;;
17449;SDS011;8842;51.244;7.102;2023-01-08T14:51:25;7.33;;;7.03;;
17449;SDS011;8842;51.244;7.102;2023-01-08T14:56:31;7.70;;;7.30;;
17449;SDS011;8842;51.244;7.102;2023-01-08T15:01:49;9.60;;;8.80;;
17449;SDS011;8842;51.244;7.102;2023-01-08T15:12:21;7.80;;;7.40;;
17449;SDS011;8842;51.244;7.102;2023-01-08T15:17:33;7.30;;;7.00;;
17449;SDS011;8842;51.244;7.102;2023-01-08T15:22:37;7.37;;;7.07;;
17449;SDS011;8842;51.244;7.102;2023-01-08T15:27:50;7.30;;;7.00;;
17449;SDS011;8842;51.244;7.102;2023-01-08T15:33:13;6.90;;;6.60;;
17449;SDS011;8842;51.244;7.102;2023-01-08T15:38:26;7.77;;;7.37;;
17449;SDS011;8842;51.244;7.102;2023-01-08T15:48:41;7.73;;;7.33;;
17449;SDS011;8842;51.244;7.102;2023-01-08T15:58:56;6.60;;;6.30;;
17449;SDS011;8842;51.244;7.102;2023-01-08T16:04:00;6.80;;;6.50;;
17449;SDS011;8842;51.244;7.102;2023-01-08T16:09:14;6.60;;;6.30;;
17449;SDS011;8842;51.244;7.102;2023-01-08T16:19:29;7.50;;;7.20;;
17449;SDS011;8842;51.244;7.102;2023-01-08T16:24:34;7.80;;;7.40;;
17449;SDS011;8842;51.244;7.102;2023-01-08T16:29:46;7.70;;;7.30;;
17449;SDS011;8842;51.244;7.102;2023-01-08T16:34:57;8.83;;;8.43;;
17449;SDS011;8842;51.244;7.102;2023-01-08T16:40:01;8.40;;;8.00;;
17449;SDS011;8842;51.244;7.102;2023-01-08T16:45:07;8.73;;;8.33;;
17449;SDS011;8842;51.244;7.102;2023-01-08T16:50:19;8.00;;;7.60;;
17449;SDS011;8842;51.244;7.102;2023-01-08T16:55:31;8.33;;;7.93;;
17449;SDS011;8842;51.244;7.102;2023-01-08T17:00:35;6.83;;;6.53;;
17449;SDS011;8842;51.244;7.102;2023-01-08T17:05:47;7.30;;;7.00;;
17449;SDS011;8842;51.244;7.102;2023-01-08T17:10:51;7.90;;;7.50;;
17449;SDS011;8842;51.244;7.102;2023-01-08T17:16:06;7.30;;;7.00;;
17449;SDS011;8842;51.244;7.102;2023-01-08T17:21:12;7.30;;;7.00;;
17449;SDS011;8842;51.244;7.102;2023-01-08T17:26:19;8.20;;;7.80;;
17449;SDS011;8842;51.244;7.102;2023-01-08T17:31:34;8.10;;;7.70;;
17449;SDS011;8842;51.244;7.102;2023-01-08T17:36:41;8.30;;;7.90;;
17449;SDS011;8842;51.244;7.102;2023-01-08T17:41:53;7.60;;;7.20;;
17449;SDS011;8842;51.244;7.102;2023-01-08T17:47:15;7.77;;;7.37;;
17449;SDS011;8842;51.244;7.102;2023-01-08T17:52:27;8.00;;;7.60;;
17449;SDS011;8842;51.244;7.102;2023-01-08T17:57:32;7.97;;;7.57;;
17449;SDS011;8842;51.244;7.102;2023-01-08T18:02:43;8.00;;;7.60;;
17449;SDS011;8842;51.244;7.102;2023-01-08T18:07:48;8.23;;;7.83;;
17449;SDS011;8842;51.244;7.102;2023-01-08T18:13:00;7.17;;;6.87;;
17449;SDS011;8842;51.244;7.102;2023-01-08T18:23:15;7.40;;;7.10;;
17449;SDS011;8842;51.244;7.102;2023-01-08T18:33:30;7.30;;;7.00;;
17449;SDS011;8842;51.244;7.102;2023-01-08T18:38:45;7.90;;;7.50;;
17449;SDS011;8842;51.244;7.102;2023-01-08T18:49:01;8.10;;;7.70;;
17449;SDS011;8842;51.244;7.102;2023-01-08T18:54:13;8.00;;;7.60;;
17449;SDS011;8842;51.244;7.102;2023-01-08T18:59:17;8.00;;;7.60;;
17449;SDS011;8842;51.244;7.102;2023-01-08T19:04:29;8.00;;;7.60;;
17449;SDS011;8842;51.244;7.102;2023-01-08T19:09:33;7.97;;;7.57;;
17449;SDS011;8842;51.244;7.102;2023-01-08T19:19:48;7.83;;;7.43;;
17449;SDS011;8842;51.244;7.102;2023-01-08T19:24:52;7.87;;;7.47;;
17449;SDS011;8842;51.244;7.102;2023-01-08T19:30:04;7.90;;;7.50;;
17449;SDS011;8842;51.244;7.102;2023-01-08T19:35:12;8.83;;;8.10;;
17449;SDS011;8842;51.244;7.102;2023-01-08T19:40:16;8.50;;;8.10;;
17449;SDS011;8842;51.244;7.102;2023-01-08T19:50:31;8.10;;;7.70;;
17449;SDS011;8842;51.244;7.102;2023-01-08T19:55:36;8.13;;;7.73;;
17449;SDS011;8842;51.244;7.102;2023-01-08T20:00:48;8.23;;;7.83;;
17449;SDS011;8842;51.244;7.102;2023-01-08T20:05:52;8.10;;;7.70;;
17449;SDS011;8842;51.244;7.102;2023-01-08T20:10:57;8.87;;;8.10;;
17449;SDS011;8842;51.244;7.102;2023-01-08T20:16:15;9.10;;;8.60;;
17449;SDS011;8842;51.244;7.102;2023-01-08T20:21:20;14.53;;;8.27;;
17449;SDS011;8842;51.244;7.102;2023-01-08T20:26:33;7.90;;;7.50;;
17449;SDS011;8842;51.244;7.102;2023-01-08T20:31:38;8.70;;;8.30;;
17449;SDS011;8842;51.244;7.102;2023-01-08T20:36:52;7.97;;;7.57;;
17449;SDS011;8842;51.244;7.102;2023-01-08T20:42:04;9.37;;;8.53;;
17449;SDS011;8842;51.244;7.102;2023-01-08T20:52:19;8.40;;;8.00;;
17449;SDS011;8842;51.244;7.102;2023-01-08T20:57:24;8.90;;;8.50;;
17449;SDS011;8842;51.244;7.102;2023-01-08T21:07:40;8.57;;;8.17;;
17449;SDS011;8842;51.244;7.102;2023-01-08T21:12:44;8.40;;;8.00;;
17449;SDS011;8842;51.244;7.102;2023-01-08T21:17:48;9.00;;;8.60;;
17449;SDS011;8842;51.244;7.102;2023-01-08T21:23:00;8.30;;;7.90;;
17449;SDS011;8842;51.244;7.102;2023-01-08T21:28:04;9.00;;;8.60;;
17449;SDS011;8842;51.244;7.102;2023-01-08T21:33:16;9.10;;;8.60;;
17449;SDS011;8842;51.244;7.102;2023-01-08T21:43:32;9.17;;;8.67;;
17449;SDS011;8842;51.244;7.102;2023-01-08T21:48:54;8.60;;;8.20;;
17449;SDS011;8842;51.244;7.102;2023-01-08T21:54:06;8.60;;;8.20;;
17449;SDS011;8842;51.244;7.102;2023-01-08T21:59:10;8.50;;;8.10;;
17449;SDS011;8842;51.244;7.102;2023-01-08T22:04:22;8.40;;;8.00;;
17449;SDS011;8842;51.244;7.102;2023-01-08T22:09:26;9.40;;;8.77;;
17449;SDS011;8842;51.244;7.102;2023-01-08T22:14:38;8.73;;;8.33;;
17449;SDS011;8842;51.244;7.102;2023-01-08T22:24:53;8.60;;;8.17;;
17449;SDS011;8842;51.244;7.102;2023-01-08T22:29:57;8.60;;;8.20;;
17449;SDS011;8842;51.244;7.102;2023-01-08T22:35:01;8.60;;;8.20;;
17449;SDS011;8842;51.244;7.102;2023-01-08T22:40:16;8.70;;;8.30;;
17449;SDS011;8842;51.244;7.102;2023-01-08T22:50:33;11.20;;;10.30;;
17449;SDS011;8842;51.244;7.102;2023-01-08T22:55:39;10.07;;;9.57;;
17449;SDS011;8842;51.244;7.102;2023-01-08T23:00:43;12.10;;;11.40;;
17449;SDS011;8842;51.244;7.102;2023-01-08T23:06:00;11.10;;;10.50;;
17449;SDS011;8842;51.244;7.102;2023-01-08T23:11:13;11.00;;;10.40;;
17449;SDS011;8842;51.244;7.102;2023-01-08T23:21:32;11.60;;;11.00;;
17449;SDS011;8842;51.244;7.102;2023-01-08T23:26:38;12.90;;;12.20;;
17449;SDS011;8842;51.244;7.102;2023-01-08T23:31:55;13.07;;;12.37;;
17449;SDS011;8842;51.244;7.102;2023-01-08T23:42:21;13.60;;;12.80;;
17449;SDS011;8842;51.244;7.102;2023-01-08T23:47:25;12.97;;;12.27;;
17449;SDS011;8842;51.244;7.102;2023-01-08T23:52:39;13.30;;;12.60;;
